createdAt,value
2023-03-02T00:02:05.554Z,24.33
2023-03-02T00:04:40.048Z,22.10
2023-03-02T00:07:10.752Z,21.95
2023-03-02T00:09:38.684Z,23.27
2023-03-02T00:12:07.180Z,30.00
2023-03-02T00:14:34.239Z,24.10
2023-03-02T00:17:02.834Z,23.55
2023-03-02T00:19:30.996Z,21.02
2023-03-02T00:21:57.945Z,22.63
2023-03-02T00:24:25.095Z,23.98
2023-03-02T00:26:52.146Z,25.25
2023-03-02T00:29:19.518Z,24.55
2023-03-02T00:31:47.003Z,22.10
2023-03-02T00:34:15.409Z,23.02
2023-03-02T00:36:43.463Z,22.65
2023-03-02T00:39:10.484Z,27.40
2023-03-02T00:41:37.841Z,28.48
2023-03-02T00:44:05.117Z,21.70
2023-03-02T00:46:32.688Z,26.77
2023-03-02T00:48:59.757Z,22.02
2023-03-02T00:51:26.750Z,23.80
2023-03-02T00:53:53.856Z,18.77
2023-03-02T00:56:20.805Z,23.90
2023-03-02T00:58:51.148Z,21.85
2023-03-02T01:01:18.919Z,25.40
2023-03-02T01:03:49.716Z,22.60
2023-03-02T01:06:19.639Z,25.80
2023-03-02T01:08:46.910Z,21.23
2023-03-02T01:11:19.636Z,19.67
2023-03-02T01:13:46.920Z,19.13
2023-03-02T01:16:14.491Z,22.17
2023-03-02T01:18:41.702Z,23.67
2023-03-02T01:21:12.576Z,26.17
2023-03-02T01:23:39.848Z,20.85
2023-03-02T01:26:07.065Z,22.15
2023-03-02T01:28:35.275Z,22.38
2023-03-02T01:31:04.672Z,20.08
2023-03-02T01:33:32.540Z,20.33
2023-03-02T01:35:59.577Z,23.65
2023-03-02T01:38:27.492Z,22.00
2023-03-02T01:40:55.657Z,21.77
2023-03-02T01:43:29.579Z,19.67
2023-03-02T01:46:07.208Z,21.42
2023-03-02T01:48:51.395Z,20.90
2023-03-02T01:54:01.940Z,19.75
2023-03-02T01:59:07.721Z,22.70
2023-03-02T02:01:38.042Z,20.02
2023-03-02T02:04:06.336Z,22.45
2023-03-02T02:06:43.278Z,20.42
2023-03-02T02:09:14.744Z,21.85
2023-03-02T02:11:51.537Z,19.83
2023-03-02T02:14:18.766Z,24.70
2023-03-02T02:16:47.070Z,20.92
2023-03-02T02:19:34.350Z,23.08
2023-03-02T02:22:02.171Z,23.85
2023-03-02T02:24:53.518Z,24.98
2023-03-02T02:27:20.485Z,22.00
2023-03-02T02:29:51.699Z,19.70
2023-03-02T02:32:31.935Z,20.33
2023-03-02T02:35:30.402Z,29.25
2023-03-02T02:38:04.384Z,19.80
2023-03-02T02:40:56.163Z,22.33
2023-03-02T02:43:30.818Z,22.23
2023-03-02T02:45:59.292Z,18.40
2023-03-02T02:48:31.185Z,21.35
2023-03-02T02:51:03.354Z,25.42
2023-03-02T02:54:18.502Z,25.63
2023-03-02T02:56:48.772Z,20.52
2023-03-02T02:59:32.718Z,22.15
2023-03-02T03:02:01.246Z,20.05
2023-03-02T03:04:31.792Z,27.25
2023-03-02T03:07:06.588Z,22.13
2023-03-02T03:09:33.982Z,22.70
2023-03-02T03:12:18.017Z,23.52
2023-03-02T03:14:45.531Z,22.45
2023-03-02T03:17:12.901Z,22.77
2023-03-02T03:19:47.501Z,21.52
2023-03-02T03:22:16.371Z,26.00
2023-03-02T03:24:48.094Z,25.27
2023-03-02T03:27:17.248Z,24.38
2023-03-02T03:29:48.412Z,19.40
2023-03-02T03:32:19.040Z,25.17
2023-03-02T03:34:46.526Z,25.45
2023-03-02T03:37:21.006Z,25.55
2023-03-02T03:40:16.644Z,24.38
2023-03-02T03:42:45.414Z,22.98
2023-03-02T03:45:13.513Z,27.70
2023-03-02T03:47:42.891Z,24.60
2023-03-02T03:50:11.089Z,23.08
2023-03-02T03:53:06.572Z,22.35
2023-03-02T03:55:33.806Z,24.50
2023-03-02T03:58:00.767Z,23.35
2023-03-02T04:00:31.941Z,27.17
2023-03-02T04:03:07.401Z,27.95
2023-03-02T04:05:40.843Z,26.77
2023-03-02T04:08:08.356Z,23.45
2023-03-02T04:10:35.799Z,26.00
2023-03-02T04:13:41.807Z,21.17
2023-03-02T04:16:08.912Z,23.88
2023-03-02T04:18:36.024Z,27.30
2023-03-02T04:21:03.048Z,22.38
2023-03-02T04:23:30.145Z,26.38
2023-03-02T04:25:57.356Z,20.55
2023-03-02T04:28:24.901Z,19.70
2023-03-02T04:30:51.874Z,25.05
2023-03-02T04:33:18.933Z,21.38
2023-03-02T04:35:46.130Z,24.00
2023-03-02T04:38:13.504Z,26.90
2023-03-02T04:40:47.118Z,21.33
2023-03-02T04:43:14.413Z,26.30
2023-03-02T04:45:42.648Z,21.92
2023-03-02T04:48:09.609Z,35.80
2023-03-02T04:50:37.220Z,22.63
2023-03-02T04:53:04.615Z,22.30
2023-03-02T04:55:33.141Z,24.10
2023-03-02T04:58:00.254Z,29.65
2023-03-02T05:00:28.970Z,30.23
2023-03-02T05:02:58.138Z,26.25
2023-03-02T05:05:44.305Z,22.98
2023-03-02T05:08:11.369Z,25.05
2023-03-02T05:10:38.402Z,20.20
2023-03-02T05:13:05.947Z,29.70
2023-03-02T05:15:39.201Z,22.00
2023-03-02T05:18:08.804Z,22.40
2023-03-02T05:20:36.043Z,22.35
2023-03-02T05:23:05.763Z,22.83
2023-03-02T05:25:37.789Z,21.83
2023-03-02T05:28:05.502Z,20.73
2023-03-02T05:30:37.649Z,19.77
2023-03-02T05:33:08.029Z,23.55
2023-03-02T05:35:35.640Z,25.88
2023-03-02T05:38:02.848Z,24.83
2023-03-02T05:40:29.984Z,19.95
2023-03-02T05:42:59.767Z,22.33
2023-03-02T05:45:29.981Z,23.95
2023-03-02T05:47:57.227Z,24.40
2023-03-02T05:51:03.827Z,21.42
2023-03-02T05:53:30.813Z,24.88
2023-03-02T05:55:57.757Z,39.13
2023-03-02T05:58:28.007Z,27.05
2023-03-02T06:00:55.034Z,23.02
2023-03-02T06:03:22.030Z,25.25
2023-03-02T06:05:52.507Z,26.63
2023-03-02T06:08:21.550Z,24.52
2023-03-02T06:10:50.974Z,21.35
2023-03-02T06:13:18.269Z,23.58
2023-03-02T06:15:45.409Z,27.42
2023-03-02T06:19:17.236Z,27.13
2023-03-02T06:21:44.234Z,22.80
2023-03-02T06:24:11.983Z,24.02
2023-03-02T06:26:39.199Z,25.63
2023-03-02T06:29:07.801Z,21.15
2023-03-02T06:31:35.500Z,25.52
2023-03-02T06:34:02.658Z,21.80
2023-03-02T06:36:29.877Z,26.65
2023-03-02T06:40:07.239Z,22.10
2023-03-02T06:42:34.394Z,22.13
2023-03-02T06:45:01.453Z,28.80
2023-03-02T06:47:28.553Z,22.00
2023-03-02T06:49:56.694Z,22.63
2023-03-02T06:52:24.009Z,22.00
2023-03-02T06:54:51.821Z,26.13
2023-03-02T06:57:18.753Z,26.17
2023-03-02T06:59:45.844Z,24.08
2023-03-02T07:02:13.082Z,23.40
2023-03-02T07:09:05.696Z,21.80
2023-03-02T07:11:33.163Z,23.85
2023-03-02T07:14:01.429Z,25.60
2023-03-02T07:16:28.887Z,23.00
2023-03-02T07:18:55.806Z,27.27
2023-03-02T07:21:23.041Z,23.13
2023-03-02T07:23:50.114Z,24.10
2023-03-02T07:26:19.976Z,21.98
2023-03-02T07:28:47.744Z,25.08
2023-03-02T07:31:15.006Z,26.35
2023-03-02T07:33:42.091Z,26.27
2023-03-02T07:36:09.590Z,22.58
2023-03-02T07:38:37.938Z,24.50
2023-03-02T07:41:10.507Z,19.33
2023-03-02T07:43:38.057Z,22.23
2023-03-02T07:46:06.669Z,20.17
2023-03-02T07:48:34.519Z,21.88
2023-03-02T07:51:05.999Z,21.90
2023-03-02T07:53:33.442Z,16.10
2023-03-02T07:56:02.407Z,19.73
2023-03-02T07:58:29.687Z,18.88
2023-03-02T08:00:56.726Z,20.65
2023-03-02T08:03:23.748Z,24.30
2023-03-02T08:05:50.727Z,20.77
2023-03-02T08:08:17.779Z,17.92
2023-03-02T08:10:48.222Z,21.08
2023-03-02T08:13:15.227Z,23.73
2023-03-02T08:15:42.237Z,20.08
2023-03-02T08:18:09.243Z,22.05
2023-03-02T08:20:37.263Z,23.20
2023-03-02T08:23:04.697Z,21.33
2023-03-02T08:25:31.658Z,21.25
2023-03-02T08:27:58.590Z,19.10
2023-03-02T08:30:25.603Z,20.27
2023-03-02T08:32:52.546Z,19.45
2023-03-02T08:35:22.273Z,21.48
2023-03-02T08:37:52.099Z,17.40
2023-03-02T08:40:19.245Z,20.00
2023-03-02T08:42:46.490Z,18.85
2023-03-02T08:45:13.701Z,18.58
2023-03-02T08:47:40.747Z,21.00
2023-03-02T08:50:08.293Z,18.45
2023-03-02T08:52:35.318Z,23.58
2023-03-02T08:55:03.937Z,17.17
2023-03-02T08:57:31.275Z,20.92
2023-03-02T08:59:59.187Z,18.75
2023-03-02T09:02:26.506Z,17.83
2023-03-02T09:04:53.599Z,23.23
2023-03-02T09:07:20.831Z,18.58
2023-03-02T09:09:48.083Z,20.50
2023-03-02T09:12:16.369Z,19.85
2023-03-02T09:14:43.381Z,25.23
2023-03-02T09:17:12.996Z,15.93
2023-03-02T09:19:44.324Z,15.02
2023-03-02T09:22:12.148Z,17.40
2023-03-02T09:24:39.094Z,12.48
2023-03-02T09:27:06.035Z,15.65
2023-03-02T09:29:32.924Z,16.25
2023-03-02T09:32:00.295Z,17.35
2023-03-02T09:34:27.270Z,14.30
2023-03-02T09:36:54.176Z,16.88
2023-03-02T09:39:21.212Z,16.58
2023-03-02T09:42:02.920Z,16.00
2023-03-02T09:45:21.464Z,20.52
2023-03-02T09:48:00.243Z,24.08
2023-03-02T09:50:31.964Z,15.00
2023-03-02T09:53:39.540Z,17.83
2023-03-02T09:56:14.674Z,15.00
2023-03-02T09:58:45.389Z,14.80
2023-03-02T10:01:16.943Z,14.05
2023-03-02T10:03:58.056Z,14.38
2023-03-02T10:06:25.084Z,14.65
2023-03-02T10:08:52.301Z,20.80
2023-03-02T10:11:32.607Z,17.25
2023-03-02T10:14:08.312Z,18.90
2023-03-02T10:16:38.802Z,19.27
2023-03-02T10:19:26.985Z,12.95
2023-03-02T10:22:24.360Z,16.00
2023-03-02T10:25:16.485Z,14.15
2023-03-02T10:27:49.409Z,23.27
2023-03-02T10:30:31.949Z,18.05
2023-03-02T10:33:04.246Z,16.85
2023-03-02T10:35:32.024Z,18.98
2023-03-02T10:38:10.438Z,18.05
2023-03-02T10:40:42.450Z,15.63
2023-03-02T10:43:48.754Z,19.90
2023-03-02T10:46:15.858Z,18.38
2023-03-02T10:48:50.787Z,18.02
2023-03-02T10:51:34.377Z,19.08
2023-03-02T10:54:05.558Z,16.40
2023-03-02T10:56:33.883Z,14.02
2023-03-02T10:59:03.637Z,17.20
2023-03-02T11:01:31.907Z,17.55
2023-03-02T11:04:01.084Z,16.17
2023-03-02T11:06:29.846Z,13.88
2023-03-02T11:09:01.175Z,15.68
2023-03-02T11:11:28.877Z,19.60
2023-03-02T11:13:59.022Z,21.42
2023-03-02T11:16:31.285Z,14.93
2023-03-02T11:19:07.993Z,17.02
2023-03-02T11:21:38.436Z,16.83
2023-03-02T11:24:38.550Z,21.98
2023-03-02T11:27:13.989Z,20.73
2023-03-02T11:29:43.788Z,16.00
2023-03-02T11:32:16.357Z,16.08
2023-03-02T11:34:46.894Z,14.68
2023-03-02T11:37:47.099Z,14.75
2023-03-02T11:40:20.063Z,15.25
2023-03-02T11:42:47.677Z,14.63
2023-03-02T11:45:20.429Z,15.75
2023-03-02T11:48:47.188Z,20.95
2023-03-02T11:51:23.830Z,17.52
2023-03-02T11:54:02.844Z,14.98
2023-03-02T11:56:34.615Z,19.55
2023-03-02T11:59:06.831Z,19.27
2023-03-02T12:04:11.792Z,19.35
2023-03-02T12:06:42.114Z,18.73
2023-03-02T12:09:33.228Z,18.80
2023-03-02T12:12:15.400Z,20.58
2023-03-02T12:14:43.531Z,15.85
2023-03-02T12:17:31.296Z,14.85
2023-03-02T12:20:23.002Z,19.10
2023-03-02T12:22:53.317Z,17.40
2023-03-02T12:25:20.489Z,16.27
2023-03-02T12:27:51.014Z,14.07
2023-03-02T12:30:24.607Z,15.63
2023-03-02T12:33:11.649Z,18.38
2023-03-02T12:35:38.902Z,18.30
2023-03-02T12:38:18.930Z,15.45
2023-03-02T12:41:05.098Z,18.33
2023-03-02T12:43:37.907Z,14.85
2023-03-02T12:46:23.590Z,18.60
2023-03-02T12:49:27.393Z,13.98
2023-03-02T12:52:05.689Z,17.58
2023-03-02T12:54:34.935Z,16.50
2023-03-02T12:57:20.038Z,14.32
2023-03-02T12:59:59.730Z,14.13
2023-03-02T13:02:32.489Z,14.23
2023-03-02T13:05:08.630Z,20.45
2023-03-02T13:07:42.000Z,18.15
2023-03-02T13:10:36.174Z,13.57
2023-03-02T13:13:15.477Z,14.85
2023-03-02T13:16:20.088Z,14.32
2023-03-02T13:18:49.528Z,16.52
2023-03-02T13:21:19.649Z,25.15
2023-03-02T13:23:49.838Z,19.25
2023-03-02T13:26:25.677Z,14.60
2023-03-02T13:29:05.681Z,13.82
2023-03-02T13:31:34.363Z,15.52
2023-03-02T13:34:02.775Z,15.73
2023-03-02T13:36:38.680Z,15.38
2023-03-02T13:39:09.436Z,16.67
2023-03-02T13:41:37.641Z,16.65
2023-03-02T13:44:20.040Z,16.52
2023-03-02T13:46:47.696Z,12.75
2023-03-02T13:49:25.597Z,13.82
2023-03-02T13:52:00.961Z,15.63
2023-03-02T13:54:31.351Z,13.63
2023-03-02T13:57:00.984Z,12.50
2023-03-02T13:59:27.906Z,12.98
2023-03-02T14:01:54.983Z,15.32
2023-03-02T14:04:23.583Z,15.02
2023-03-02T14:06:51.988Z,12.63
2023-03-02T14:09:19.126Z,12.18
2023-03-02T14:11:49.612Z,15.38
2023-03-02T14:14:22.587Z,15.32
2023-03-02T14:16:50.301Z,13.43
2023-03-02T14:19:18.811Z,16.08
2023-03-02T14:21:46.874Z,16.15
2023-03-02T14:24:14.494Z,13.07
2023-03-02T14:26:47.975Z,11.98
2023-03-02T14:29:30.403Z,15.50
2023-03-02T14:32:00.768Z,12.70
2023-03-02T14:34:27.971Z,12.23
2023-03-02T14:36:58.505Z,13.85
2023-03-02T14:39:36.725Z,16.13
2023-03-02T14:42:05.365Z,13.95
2023-03-02T14:44:32.532Z,15.40
2023-03-02T14:46:59.669Z,12.23
2023-03-02T14:49:26.735Z,15.95
2023-03-02T14:52:33.869Z,12.00
2023-03-02T14:55:04.935Z,14.90
2023-03-02T14:57:38.622Z,14.48
2023-03-02T15:00:09.312Z,13.75
2023-03-02T15:02:36.768Z,15.27
2023-03-02T15:05:04.004Z,17.30
2023-03-02T15:07:30.911Z,10.77
2023-03-02T15:09:58.547Z,16.63
2023-03-02T15:12:25.850Z,13.27
2023-03-02T15:14:53.139Z,17.05
2023-03-02T15:17:20.493Z,14.38
2023-03-02T15:19:48.414Z,14.27
2023-03-02T15:22:15.828Z,15.38
2023-03-02T15:24:42.856Z,16.88
2023-03-02T15:27:10.034Z,11.60
2023-03-02T15:29:36.915Z,14.38
2023-03-02T15:32:04.411Z,11.85
2023-03-02T15:34:31.315Z,12.85
2023-03-02T15:36:58.301Z,13.73
2023-03-02T15:39:25.656Z,14.13
2023-03-02T15:41:53.980Z,11.25
2023-03-02T15:44:24.627Z,16.25
2023-03-02T15:46:56.804Z,12.27
2023-03-02T15:49:27.295Z,13.68
2023-03-02T15:51:57.503Z,13.00
2023-03-02T15:54:28.295Z,13.52
2023-03-02T15:56:55.481Z,12.18
2023-03-02T15:59:25.486Z,14.45
2023-03-02T16:01:53.579Z,16.73
2023-03-02T16:04:20.965Z,14.00
2023-03-02T16:06:47.914Z,12.70
2023-03-02T16:09:15.451Z,13.73
2023-03-02T16:11:42.449Z,11.68
2023-03-02T16:14:09.834Z,14.43
2023-03-02T16:16:36.928Z,17.67
2023-03-02T16:19:04.103Z,20.02
2023-03-02T16:21:31.155Z,13.25
2023-03-02T16:24:04.702Z,18.02
2023-03-02T16:26:34.628Z,19.67
2023-03-02T16:29:02.441Z,19.40
2023-03-02T16:31:33.939Z,16.38
2023-03-02T16:34:06.331Z,15.77
2023-03-02T16:36:34.632Z,14.63
2023-03-02T16:39:01.989Z,16.92
2023-03-02T16:41:29.387Z,19.10
2023-03-02T16:43:58.855Z,16.63
2023-03-02T16:46:28.866Z,18.38
2023-03-02T16:48:57.253Z,20.48
2023-03-02T16:51:25.035Z,13.65
2023-03-02T16:53:52.837Z,13.63
2023-03-02T16:56:20.517Z,15.15
2023-03-02T16:58:47.579Z,16.35
2023-03-02T17:01:18.708Z,19.65
2023-03-02T17:03:46.990Z,19.13
2023-03-02T17:06:16.010Z,18.00
2023-03-02T17:08:43.085Z,15.48
2023-03-02T17:11:12.007Z,16.02
2023-03-02T17:13:39.733Z,15.60
2023-03-02T17:16:08.211Z,22.33
2023-03-02T17:18:35.379Z,16.92
2023-03-02T17:21:05.174Z,15.18
2023-03-02T17:23:32.707Z,14.65
2023-03-02T17:26:01.688Z,18.95
2023-03-02T17:28:28.726Z,41.05
2023-03-02T17:30:55.778Z,15.57
2023-03-02T17:33:22.937Z,19.15
2023-03-02T17:35:50.417Z,18.08
2023-03-02T17:38:17.705Z,14.75
2023-03-02T17:40:45.076Z,19.17
2023-03-02T17:43:13.737Z,18.30
2023-03-02T17:45:41.592Z,20.63
2023-03-02T17:48:08.577Z,18.85
2023-03-02T17:50:35.723Z,19.55
2023-03-02T17:53:03.100Z,19.00
2023-03-02T17:55:30.894Z,20.40
2023-03-02T17:57:58.229Z,16.75
2023-03-02T18:00:25.651Z,19.63
2023-03-02T18:02:54.707Z,20.70
2023-03-02T18:05:22.422Z,18.83
2023-03-02T18:07:50.254Z,17.60
2023-03-02T18:10:17.258Z,18.10
2023-03-02T18:12:44.399Z,20.00
2023-03-02T18:15:12.793Z,16.83
2023-03-02T18:17:40.254Z,19.23
2023-03-02T18:20:13.226Z,18.25
2023-03-02T18:22:40.516Z,20.10
2023-03-02T18:25:08.763Z,18.75
2023-03-02T18:27:36.217Z,17.85
2023-03-02T18:30:04.185Z,18.45
2023-03-02T18:32:31.400Z,21.27
2023-03-02T18:34:59.823Z,18.58
2023-03-02T18:37:26.972Z,17.85
2023-03-02T18:39:53.933Z,21.15
2023-03-02T18:42:20.982Z,21.23
2023-03-02T18:44:49.282Z,18.70
2023-03-02T18:47:18.201Z,19.45
2023-03-02T18:49:46.739Z,23.98
2023-03-02T18:52:17.363Z,20.40
2023-03-02T18:54:45.696Z,21.23
2023-03-02T18:57:14.172Z,21.65
2023-03-02T18:59:41.260Z,23.63
2023-03-02T19:02:13.368Z,19.55
2023-03-02T19:04:40.517Z,18.88
2023-03-02T19:07:07.680Z,19.75
2023-03-02T19:09:35.165Z,21.83
2023-03-02T19:12:04.821Z,18.83
2023-03-02T19:14:33.679Z,19.98
2023-03-02T19:17:03.739Z,22.60
2023-03-02T19:19:33.772Z,23.98
2023-03-02T19:22:01.278Z,23.13
2023-03-02T19:24:28.441Z,20.25
2023-03-02T19:26:57.278Z,19.95
2023-03-02T19:29:24.444Z,24.88
2023-03-02T19:31:52.469Z,25.23
2023-03-02T19:34:19.502Z,22.45
2023-03-02T19:36:47.603Z,24.67
2023-03-02T19:39:14.704Z,40.00
2023-03-02T19:41:41.801Z,39.75
2023-03-02T19:44:09.041Z,27.42
2023-03-02T19:46:36.020Z,26.92
2023-03-02T19:49:03.019Z,24.80
2023-03-02T19:51:30.826Z,27.60
2023-03-02T19:53:58.039Z,21.67
2023-03-02T19:56:32.925Z,23.60
2023-03-02T19:59:01.898Z,22.52
2023-03-02T20:01:30.211Z,22.92
2023-03-02T20:03:58.223Z,23.10
2023-03-02T20:06:31.591Z,22.25
2023-03-02T20:09:01.410Z,23.13
2023-03-02T20:11:30.922Z,22.92
2023-03-02T20:14:02.346Z,21.63
2023-03-02T20:16:31.830Z,23.10
2023-03-02T20:19:02.044Z,25.27
2023-03-02T20:21:30.796Z,23.60
2023-03-02T20:23:57.860Z,25.83
2023-03-02T20:26:25.746Z,21.23
2023-03-02T20:28:55.482Z,21.88
2023-03-02T20:31:24.923Z,22.77
2023-03-02T20:33:53.753Z,19.55
2023-03-02T20:36:29.531Z,19.48
2023-03-02T20:39:10.107Z,21.67
2023-03-02T20:41:37.128Z,21.95
2023-03-02T20:44:05.627Z,26.48
2023-03-02T20:46:37.017Z,22.45
2023-03-02T20:49:06.572Z,21.92
2023-03-02T20:51:33.723Z,20.73
2023-03-02T20:54:02.049Z,22.95
2023-03-02T20:56:29.509Z,23.85
2023-03-02T20:58:56.608Z,23.30
2023-03-02T21:01:24.827Z,21.42
2023-03-02T21:03:52.969Z,20.70
2023-03-02T21:06:20.426Z,23.40
2023-03-02T21:08:47.560Z,21.90
2023-03-02T21:11:17.729Z,24.38
2023-03-02T21:13:46.633Z,21.90
2023-03-02T21:16:24.884Z,21.00
2023-03-02T21:18:52.351Z,23.40
2023-03-02T21:21:23.008Z,22.73
2023-03-02T21:23:52.033Z,24.85
2023-03-02T21:26:19.644Z,22.65
2023-03-02T21:28:47.811Z,24.85
2023-03-02T21:31:19.003Z,22.70
2023-03-02T21:33:46.747Z,22.23
2023-03-02T21:36:21.978Z,25.05
2023-03-02T21:38:52.613Z,22.73
2023-03-02T21:41:19.967Z,26.90
2023-03-02T21:43:48.024Z,25.92
2023-03-02T21:46:20.093Z,29.17
2023-03-02T21:51:18.995Z,31.05
2023-03-02T21:53:47.640Z,27.70
2023-03-02T21:56:26.191Z,29.73
2023-03-02T21:58:56.439Z,30.77
2023-03-02T22:01:25.832Z,29.73
2023-03-02T22:03:54.095Z,30.60
2023-03-02T22:06:24.591Z,30.88
2023-03-02T22:08:52.972Z,30.85
2023-03-02T22:11:23.701Z,34.78
2023-03-02T22:13:52.456Z,34.65
2023-03-02T22:16:26.598Z,36.75
2023-03-02T22:18:57.210Z,39.58
2023-03-02T22:21:43.605Z,33.60
2023-03-02T22:24:17.614Z,32.80
2023-03-02T22:27:09.261Z,33.88
2023-03-02T22:29:43.623Z,33.67
2023-03-02T22:32:25.364Z,43.38
2023-03-02T22:34:55.212Z,35.35
2023-03-02T22:37:33.137Z,39.65
2023-03-02T22:40:32.940Z,38.75
2023-03-02T22:43:34.733Z,41.40
2023-03-02T22:46:20.395Z,38.83
2023-03-02T22:48:50.752Z,38.55
2023-03-02T22:51:25.024Z,38.25
2023-03-02T22:53:57.463Z,39.33
2023-03-02T22:56:45.904Z,41.88
2023-03-02T22:59:35.918Z,41.80
2023-03-02T23:02:13.234Z,39.97
2023-03-02T23:04:40.819Z,42.88
2023-03-02T23:07:17.491Z,37.22
2023-03-02T23:09:45.814Z,41.70
2023-03-02T23:12:20.147Z,44.70
2023-03-02T23:14:58.225Z,41.08
2023-03-02T23:17:35.959Z,48.47
2023-03-02T23:20:06.999Z,46.20
2023-03-02T23:22:34.198Z,49.45
2023-03-02T23:25:01.417Z,43.45
2023-03-02T23:27:28.426Z,47.00
2023-03-02T23:29:55.698Z,46.75
2023-03-02T23:32:22.941Z,45.33
2023-03-02T23:34:50.289Z,48.63
2023-03-02T23:37:17.234Z,47.05
2023-03-02T23:39:46.069Z,48.28
2023-03-02T23:42:14.394Z,50.45
2023-03-02T23:44:41.623Z,44.63
2023-03-02T23:47:08.617Z,51.80
2023-03-02T23:49:38.461Z,55.45
2023-03-02T23:52:06.705Z,54.80
2023-03-02T23:54:33.909Z,46.60
2023-03-02T23:57:01.123Z,49.00
2023-03-02T23:59:28.023Z,48.55
